Time;durP1;ratioP1;P1;durP2;ratioP2;P2;SDS_P1;SDS_P2;PMS_P1;PMS_P2;Temp;Humidity;BMP_temperature;BMP_pressure;BME280_temperature;BME280_humidity;BME280_pressure;Samples;Min_cycle;Max_cycle;Signal;HPM_P1;HPM_P2
2022/12/28 00:01:20;;;;;;;10.35;7.70;;;;;;;5.87;100.00;97203.34;5050834;28;20072;-38
2022/12/28 00:03:49;;;;;;;10.38;8.02;;;;;;;5.75;100.00;97198.91;5053645;28;20099;-41
2022/12/28 00:06:18;;;;;;;11.00;7.18;;;;;;;5.70;100.00;97198.34;5049570;28;20084;-39
2022/12/28 00:08:46;;;;;;;9.82;7.10;;;;;;;5.66;100.00;97197.69;5053298;28;20484;-41
2022/12/28 00:11:17;;;;;;;8.13;6.90;;;;;;;5.67;100.00;97196.75;5054114;28;20084;-40
2022/12/28 00:14:01;;;;;;;9.48;7.10;;;;;;;5.65;100.00;97196.03;5051746;28;20084;-38
2022/12/28 00:16:31;;;;;;;10.52;7.47;;;;;;;5.72;100.00;97196.47;5059769;28;20111;-37
2022/12/28 00:19:02;;;;;;;9.50;7.10;;;;;;;5.67;100.00;97196.75;5054512;28;20076;-36
2022/12/28 00:21:31;;;;;;;9.95;6.95;;;;;;;5.62;100.00;97192.75;5051538;28;22381;-42
2022/12/28 00:24:00;;;;;;;10.68;7.45;;;;;;;5.70;100.00;97199.16;5056142;28;20076;-37
2022/12/28 00:26:30;;;;;;;7.85;7.00;;;;;;;5.63;100.00;97194.44;5053108;28;20077;-42
2022/12/28 00:29:00;;;;;;;9.48;7.03;;;;;;;5.63;100.00;97191.81;5058899;28;20089;-39
2022/12/28 00:31:33;;;;;;;7.53;6.60;;;;;;;5.67;100.00;97195.91;5056016;28;20092;-36
2022/12/28 00:34:02;;;;;;;7.63;6.38;;;;;;;5.67;100.00;97190.69;5058299;28;20084;-39
2022/12/28 00:36:30;;;;;;;8.50;6.75;;;;;;;5.68;100.00;97192.38;5051466;28;21041;-39
2022/12/28 00:39:19;;;;;;;9.80;7.05;;;;;;;5.45;100.00;97205.09;5055085;28;20072;-41
2022/12/28 00:41:47;;;;;;;8.90;7.15;;;;;;;5.35;100.00;97201.38;5058174;28;20182;-40
2022/12/28 00:44:17;;;;;;;8.23;7.20;;;;;;;5.26;100.00;97191.47;5054927;28;20087;-43
2022/12/28 00:46:45;;;;;;;7.13;6.43;;;;;;;5.38;100.00;97197.72;5053310;28;20080;-40
2022/12/28 00:49:13;;;;;;;11.30;6.50;;;;;;;5.39;100.00;97192.41;5053898;28;20091;-41
2022/12/28 00:51:41;;;;;;;8.30;6.80;;;;;;;5.43;100.00;97187.81;5055342;28;20096;-41
2022/12/28 00:54:10;;;;;;;8.10;7.25;;;;;;;5.42;100.00;97180.91;5058135;28;20076;-40
2022/12/28 00:56:40;;;;;;;8.95;7.50;;;;;;;5.38;100.00;97174.19;5058517;28;20084;-40
2022/12/28 00:59:08;;;;;;;8.70;7.60;;;;;;;5.39;100.00;97176.69;5056943;28;20041;-38
2022/12/28 01:01:38;;;;;;;10.15;7.25;;;;;;;5.40;100.00;97172.31;5059881;28;20543;-40
2022/12/28 01:04:07;;;;;;;9.40;7.13;;;;;;;5.41;100.00;97179.25;5058926;28;20084;-43
2022/12/28 01:06:36;;;;;;;9.02;7.47;;;;;;;5.48;100.00;97177.91;5056143;28;20088;-41
2022/12/28 01:09:04;;;;;;;8.65;7.15;;;;;;;5.48;100.00;97178.75;5056093;28;20075;-38
2022/12/28 01:11:32;;;;;;;7.80;6.10;;;;;;;5.46;100.00;97174.53;5052197;28;20087;-37
2022/12/28 01:14:02;;;;;;;6.43;5.82;;;;;;;5.47;100.00;97174.47;5052619;28;20083;-40
2022/12/28 01:16:33;;;;;;;6.18;5.60;;;;;;;5.43;100.00;97169.50;5054590;28;20099;-38
2022/12/28 01:19:04;;;;;;;6.10;5.50;;;;;;;5.35;100.00;97175.22;5055023;28;20483;-44
2022/12/28 01:21:33;;;;;;;6.63;5.85;;;;;;;5.33;100.00;97176.22;5050572;28;20087;-42
2022/12/28 01:24:03;;;;;;;6.28;5.63;;;;;;;5.25;100.00;97179.31;5056577;28;20099;-38
2022/12/28 01:26:32;;;;;;;6.68;6.00;;;;;;;5.24;100.00;97168.03;5055740;28;20084;-39
2022/12/28 01:29:00;;;;;;;6.18;5.57;;;;;;;5.03;100.00;97176.34;5051238;28;20081;-37
2022/12/28 01:31:28;;;;;;;9.50;6.22;;;;;;;4.98;100.00;97182.69;5056115;28;20725;-38
2022/12/28 01:33:57;;;;;;;8.05;6.53;;;;;;;4.91;100.00;97190.97;5057553;28;20072;-41
2022/12/28 01:36:28;;;;;;;9.52;6.43;;;;;;;4.99;100.00;97192.22;5054419;28;20088;-43
2022/12/28 01:38:59;;;;;;;7.57;6.55;;;;;;;4.89;100.00;97193.69;5053539;28;20481;-39
2022/12/28 01:41:28;;;;;;;8.63;6.50;;;;;;;4.97;100.00;97186.22;5054442;28;20528;-38
2022/12/28 01:44:45;;;;;;;7.97;6.15;;;;;;;4.96;100.00;97174.09;5051164;28;20085;-41
2022/12/28 01:47:19;;;;;;;7.30;6.47;;;;;;;5.08;100.00;97175.13;4976665;28;20078;-39
2022/12/28 01:49:55;;;;;;;8.95;6.53;;;;;;;5.14;100.00;97166.91;5040129;28;20128;-43
2022/12/28 01:52:29;;;;;;;8.40;7.10;;;;;;;5.22;100.00;97162.03;5054927;28;20081;-38
2022/12/28 01:55:01;;;;;;;8.63;6.95;;;;;;;5.31;100.00;97162.44;5054677;28;20084;-41
2022/12/28 01:57:32;;;;;;;8.45;6.90;;;;;;;5.34;100.00;97162.25;5056474;28;20083;-41
2022/12/28 02:00:07;;;;;;;7.25;6.40;;;;;;;5.28;100.00;97147.75;5053401;28;20532;-40
2022/12/28 02:02:36;;;;;;;10.38;6.65;;;;;;;5.45;100.00;97139.69;5053893;28;20108;-43
2022/12/28 02:05:05;;;;;;;7.88;6.53;;;;;;;5.55;100.00;97133.91;5052888;28;20087;-37
2022/12/28 02:07:42;;;;;;;8.60;6.60;;;;;;;5.55;100.00;97124.28;5051704;28;20085;-41
2022/12/28 02:10:11;;;;;;;9.68;6.15;;;;;;;5.62;100.00;97114.25;5053518;28;20091;-40
2022/12/28 02:13:00;;;;;;;6.90;6.20;;;;;;;5.67;100.00;97107.78;5052638;28;20091;-35
2022/12/28 02:15:28;;;;;;;7.43;6.38;;;;;;;5.69;100.00;97110.31;5054658;28;20103;-37
2022/12/28 02:17:57;;;;;;;7.63;6.00;;;;;;;5.70;100.00;97107.59;5051918;28;20500;-38
2022/12/28 02:20:31;;;;;;;7.00;6.28;;;;;;;5.66;100.00;97106.09;5055031;28;20215;-37
2022/12/28 02:23:23;;;;;;;7.03;5.75;;;;;;;5.71;100.00;97101.44;5051555;28;20083;-39
2022/12/28 02:26:24;;;;;;;7.47;6.35;;;;;;;5.63;100.00;97102.84;5049572;28;20076;-38
2022/12/28 02:29:08;;;;;;;8.32;6.60;;;;;;;5.57;100.00;97098.84;5054366;28;20084;-48
2022/12/28 02:31:42;;;;;;;6.72;5.78;;;;;;;5.61;100.00;97096.88;5054193;28;20134;-44
2022/12/28 02:34:14;;;;;;;7.53;5.65;;;;;;;5.64;100.00;97086.19;5054421;28;20512;-38
2022/12/28 02:36:47;;;;;;;6.97;5.50;;;;;;;5.70;100.00;97085.81;5052232;28;20465;-41
2022/12/28 02:39:18;;;;;;;6.05;5.45;;;;;;;5.74;100.00;97089.06;5051515;28;20091;-39
2022/12/28 02:41:47;;;;;;;6.63;5.93;;;;;;;5.43;100.00;97085.81;5055084;28;20497;-40
2022/12/28 02:50:04;;;;;;;7.38;6.03;;;;;;;5.74;100.00;97079.44;5051137;28;20087;-44
2022/12/28 02:50:06;;;;;;;8.23;6.72;;;;;;;5.57;100.00;97079.69;5052937;28;20103;-46
2022/12/28 02:53:02;;;;;;;7.20;6.22;;;;;;;5.83;100.00;97081.47;5050252;28;20091;-38
2022/12/28 02:58:58;;;;;;;6.88;6.15;;;;;;;5.53;100.00;97078.22;5053443;28;20095;-39
2022/12/28 03:01:40;;;;;;;6.63;5.70;;;;;;;5.68;100.00;97074.63;5045445;28;20087;-40
2022/12/28 03:04:17;;;;;;;6.78;5.75;;;;;;;5.69;100.00;97057.97;5053594;28;20087;-44
2022/12/28 03:09:37;;;;;;;6.70;5.70;;;;;;;5.70;100.00;97055.25;5048430;28;20088;-40
2022/12/28 03:12:09;;;;;;;7.45;5.25;;;;;;;5.70;100.00;97054.41;5049807;28;20102;-38
2022/12/28 03:14:44;;;;;;;5.68;5.18;;;;;;;5.88;100.00;97047.13;5054904;28;20085;-38
2022/12/28 03:31:15;;;;;;;5.28;4.55;;;;;;;6.28;100.00;97016.53;5056684;28;20456;-40
2022/12/28 03:33:47;;;;;;;4.82;4.40;;;;;;;6.30;100.00;97016.44;5052482;28;20085;-39
2022/12/28 03:36:20;;;;;;;5.35;4.78;;;;;;;6.33;100.00;97009.22;5056220;28;20084;-40
2022/12/28 03:38:54;;;;;;;4.60;4.20;;;;;;;6.08;100.00;97025.75;5053366;28;20096;-38
2022/12/28 03:41:28;;;;;;;6.00;5.30;;;;;;;6.24;100.00;97012.47;5052217;28;20084;-39
2022/12/28 03:44:05;;;;;;;6.13;5.05;;;;;;;6.12;100.00;97014.09;5053908;28;20118;-44
2022/12/28 03:46:37;;;;;;;5.43;4.93;;;;;;;6.15;100.00;96992.13;5076262;28;20080;-42
2022/12/28 03:49:08;;;;;;;6.38;5.50;;;;;;;6.05;100.00;96998.91;5056656;28;20075;-40
2022/12/28 03:51:36;;;;;;;6.78;5.53;;;;;;;6.02;100.00;96984.28;5054288;28;20080;-41
2022/12/28 03:54:04;;;;;;;6.47;5.45;;;;;;;6.27;100.00;96985.22;5055613;28;20084;-39
2022/12/28 03:56:33;;;;;;;7.05;5.10;;;;;;;6.35;100.00;96978.50;5053013;28;20060;-40
2022/12/28 03:59:01;;;;;;;6.40;4.70;;;;;;;6.48;100.00;96975.06;5058156;28;20084;-37
2022/12/28 04:01:29;;;;;;;5.13;4.40;;;;;;;6.57;100.00;96984.88;5054473;28;20442;-37
2022/12/28 04:03:58;;;;;;;5.50;4.60;;;;;;;6.65;100.00;96980.78;5056749;28;20075;-52
2022/12/28 04:06:28;;;;;;;5.20;4.70;;;;;;;6.66;100.00;96986.84;5058337;28;20551;-44
2022/12/28 04:08:56;;;;;;;4.80;4.40;;;;;;;6.80;100.00;96978.03;5058282;28;20090;-39
2022/12/28 04:11:24;;;;;;;5.10;4.60;;;;;;;6.80;100.00;96972.78;5054842;28;20060;-37
2022/12/28 04:13:53;;;;;;;5.53;4.43;;;;;;;6.85;100.00;96973.31;5055558;28;20076;-45
2022/12/28 04:16:21;;;;;;;5.20;4.70;;;;;;;6.89;100.00;96980.84;5056897;28;20080;-42
2022/12/28 04:18:49;;;;;;;4.80;4.40;;;;;;;6.90;100.00;96966.78;5058439;28;20072;-40
2022/12/28 04:21:18;;;;;;;4.72;4.22;;;;;;;6.93;100.00;96968.34;5057930;28;20130;-38
2022/12/28 04:23:47;;;;;;;4.93;3.97;;;;;;;6.89;100.00;96969.50;5054271;28;20111;-39
2022/12/28 04:26:17;;;;;;;4.80;4.40;;;;;;;6.93;100.00;96964.88;5054752;28;20076;-39
2022/12/28 04:28:45;;;;;;;4.40;4.00;;;;;;;7.01;100.00;96960.75;5060151;28;20468;-43
2022/12/28 04:31:14;;;;;;;4.35;3.95;;;;;;;6.94;100.00;96963.94;5058250;28;20072;-45
2022/12/28 04:33:42;;;;;;;4.40;4.00;;;;;;;6.98;100.00;96962.75;5058746;28;20571;-39
2022/12/28 04:36:12;;;;;;;4.13;3.72;;;;;;;7.10;100.00;96965.34;5056235;28;20075;-38
2022/12/28 04:38:40;;;;;;;4.20;3.83;;;;;;;7.20;100.00;96954.19;5058870;28;20079;-39
2022/12/28 04:41:11;;;;;;;4.30;3.90;;;;;;;7.25;100.00;96955.53;5053998;28;20076;-37
2022/12/28 04:43:39;;;;;;;3.95;3.55;;;;;;;7.32;100.00;96961.16;5052012;28;20065;-38
2022/12/28 04:46:10;;;;;;;4.32;3.53;;;;;;;7.34;100.00;96960.09;5054797;28;20087;-44
2022/12/28 04:48:39;;;;;;;3.88;3.58;;;;;;;7.39;100.00;96954.50;5056914;28;20080;-40
2022/12/28 04:51:08;;;;;;;4.93;3.60;;;;;;;7.35;100.00;96955.69;5052088;28;20087;-38
2022/12/28 04:53:37;;;;;;;3.90;3.60;;;;;;;7.33;100.00;96963.69;5053605;28;20516;-45
2022/12/28 04:56:07;;;;;;;3.65;3.35;;;;;;;7.23;100.00;96956.59;5051911;28;20128;-41
2022/12/28 04:58:37;;;;;;;4.88;3.63;;;;;;;7.10;100.00;96957.47;5054876;28;20080;-38
2022/12/28 05:01:07;;;;;;;4.28;3.88;;;;;;;7.12;100.00;96962.59;5055633;28;20135;-39
2022/12/28 05:03:37;;;;;;;4.97;4.00;;;;;;;7.09;100.00;96962.84;5058269;28;20084;-43
2022/12/28 05:06:07;;;;;;;4.33;3.90;;;;;;;7.03;100.00;96964.13;5052111;28;20526;-42
2022/12/28 05:08:36;;;;;;;4.10;3.72;;;;;;;7.01;100.00;96959.94;5060794;28;20068;-40
2022/12/28 05:11:06;;;;;;;4.20;3.80;;;;;;;7.09;100.00;96947.13;5055288;28;20069;-40
2022/12/28 05:13:36;;;;;;;4.10;3.78;;;;;;;7.14;100.00;96945.81;5058665;28;20076;-38
2022/12/28 05:16:06;;;;;;;4.47;4.07;;;;;;;7.16;100.00;96960.59;5054405;28;20090;-40
2022/12/28 05:18:35;;;;;;;4.33;3.93;;;;;;;7.11;100.00;96961.78;5053293;28;20524;-38
2022/12/28 05:21:06;;;;;;;5.65;4.78;;;;;;;7.10;100.00;96954.03;5055099;28;20510;-39
2022/12/28 05:23:36;;;;;;;4.13;3.75;;;;;;;7.19;100.00;96956.00;5051825;28;20458;-40
2022/12/28 05:26:06;;;;;;;4.03;3.70;;;;;;;7.25;100.00;96950.28;5063627;28;20087;-38
2022/12/28 05:28:34;;;;;;;3.80;3.50;;;;;;;7.34;100.00;96946.16;5055793;28;20073;-40
2022/12/28 05:31:06;;;;;;;4.72;3.60;;;;;;;7.35;100.00;96935.53;5060559;28;20077;-44
2022/12/28 05:33:35;;;;;;;3.60;3.30;;;;;;;7.48;100.00;96917.09;5053537;28;20465;-46
2022/12/28 05:36:05;;;;;;;3.40;3.20;;;;;;;7.63;100.00;96906.41;5058300;28;20087;-39
2022/12/28 05:38:33;;;;;;;3.30;3.08;;;;;;;7.71;100.00;96901.41;5062657;28;20064;-42
2022/12/28 05:41:05;;;;;;;3.40;3.20;;;;;;;7.76;100.00;96910.63;5055832;28;20099;-38
2022/12/28 05:43:34;;;;;;;3.10;2.90;;;;;;;7.69;100.00;96904.16;5062197;28;20494;-42
2022/12/28 05:46:06;;;;;;;3.40;3.10;;;;;;;7.90;100.00;96911.38;5061939;28;20084;-40
2022/12/28 05:48:36;;;;;;;4.10;3.08;;;;;;;7.78;100.00;96913.97;5054258;28;20083;-39
2022/12/28 05:51:06;;;;;;;3.30;3.10;;;;;;;7.89;100.00;96923.66;5057867;28;20087;-38
2022/12/28 05:53:35;;;;;;;3.40;3.20;;;;;;;7.46;100.00;96942.63;5065695;28;20493;-39
2022/12/28 05:56:05;;;;;;;3.78;3.30;;;;;;;7.84;100.00;96929.28;5053274;28;20084;-39
2022/12/28 05:58:41;;;;;;;3.67;3.38;;;;;;;7.94;100.00;96933.81;5059658;28;20072;-42
2022/12/28 06:01:13;;;;;;;3.50;3.30;;;;;;;7.90;100.00;96925.31;5053742;28;20064;-43
2022/12/28 06:03:42;;;;;;;3.88;3.58;;;;;;;7.67;100.00;96934.09;5055605;28;20088;-40
2022/12/28 06:06:12;;;;;;;3.40;3.20;;;;;;;7.71;100.00;96928.53;5052037;28;20081;-39
2022/12/28 06:08:42;;;;;;;3.80;3.50;;;;;;;7.80;100.00;96924.34;5052133;28;20072;-40
2022/12/28 06:11:13;;;;;;;3.47;3.28;;;;;;;7.88;100.00;96924.63;5054391;28;20079;-41
2022/12/28 06:13:41;;;;;;;3.40;3.10;;;;;;;8.09;100.00;96919.53;5053181;28;20072;-38
2022/12/28 06:16:13;;;;;;;3.38;3.17;;;;;;;8.19;100.00;96915.22;5052804;28;20544;-38
2022/12/28 06:18:41;;;;;;;3.40;3.10;;;;;;;8.24;100.00;96920.13;5060187;28;20075;-43
2022/12/28 06:21:13;;;;;;;3.50;3.30;;;;;;;8.29;100.00;96916.19;5048101;28;20044;-42
2022/12/28 06:23:42;;;;;;;3.50;3.20;;;;;;;8.12;100.00;96911.41;5055680;28;20073;-44
2022/12/28 06:26:12;;;;;;;3.60;3.30;;;;;;;8.14;100.00;96920.00;5053558;28;20103;-39
2022/12/28 06:28:40;;;;;;;3.45;3.15;;;;;;;8.32;100.00;96921.19;5053663;28;20084;-39
2022/12/28 06:31:12;;;;;;;3.60;3.30;;;;;;;8.18;100.00;96924.03;5049694;28;20081;-40
2022/12/28 06:33:41;;;;;;;3.50;3.20;;;;;;;8.33;100.00;96920.25;5057503;28;20079;-39
2022/12/28 06:36:12;;;;;;;3.50;3.30;;;;;;;8.25;100.00;96919.16;5052178;28;20085;-41
2022/12/28 06:38:47;;;;;;;3.63;3.33;;;;;;;8.44;100.00;96921.25;5054250;28;20064;-46
2022/12/28 06:41:17;;;;;;;3.60;3.30;;;;;;;8.25;100.00;96919.16;5053887;28;20508;-41
2022/12/28 06:43:46;;;;;;;3.60;3.30;;;;;;;8.39;100.00;96915.47;5053220;28;20080;-43
2022/12/28 06:46:16;;;;;;;3.35;3.15;;;;;;;8.21;100.00;96918.56;5056953;28;20075;-39
2022/12/28 06:48:45;;;;;;;;;;;;;;;8.28;100.00;96919.75;5055067;28;20440;-41
2022/12/28 06:51:15;;;;;;;3.60;3.30;;;;;;;8.41;100.00;96908.34;5056628;28;19952;-45
2022/12/28 06:53:44;;;;;;;3.72;3.42;;;;;;;8.58;100.00;96912.28;5056254;28;20072;-39
2022/12/28 06:56:13;;;;;;;3.67;3.38;;;;;;;8.43;100.00;96909.91;5059606;28;20640;-41
2022/12/28 06:58:43;;;;;;;3.40;3.20;;;;;;;8.36;100.00;96913.91;5055973;28;20068;-39
2022/12/28 07:01:13;;;;;;;3.47;3.17;;;;;;;8.52;100.00;96911.78;5056901;28;20088;-44
2022/12/28 07:03:44;;;;;;;3.85;3.45;;;;;;;8.36;100.00;96910.44;5057995;28;20091;-42
2022/12/28 07:06:15;;;;;;;3.50;3.25;;;;;;;8.34;100.00;96913.19;5058117;28;20344;-45
2022/12/28 07:08:44;;;;;;;3.88;3.58;;;;;;;8.42;100.00;96908.19;5054683;28;20076;-42
2022/12/28 07:11:13;;;;;;;3.78;3.47;;;;;;;8.61;100.00;96907.59;5049917;28;20084;-40
2022/12/28 07:13:42;;;;;;;3.72;3.42;;;;;;;8.61;100.00;96914.66;5059648;28;20080;-39
2022/12/28 07:16:12;;;;;;;3.97;3.50;;;;;;;8.54;100.00;96914.31;5058213;28;20084;-41
2022/12/28 07:18:43;;;;;;;4.18;3.88;;;;;;;8.42;100.00;96905.56;5055396;28;20075;-43
2022/12/28 07:21:13;;;;;;;3.85;3.55;;;;;;;8.39;100.00;96905.81;5050110;28;20466;-45
2022/12/28 07:23:41;;;;;;;3.45;3.25;;;;;;;8.36;100.00;96913.06;5059780;28;20107;-39
2022/12/28 07:26:11;;;;;;;3.63;3.33;;;;;;;8.68;100.00;96905.31;5050678;28;20076;-43
2022/12/28 07:28:40;;;;;;;3.72;3.30;;;;;;;8.37;100.00;96912.13;5052745;28;20076;-40
2022/12/28 07:31:10;;;;;;;3.70;3.40;;;;;;;8.52;100.00;96911.78;5056574;28;20170;-41
2022/12/28 07:33:38;;;;;;;3.70;3.30;;;;;;;8.43;100.00;96915.16;5055083;28;20501;-38
2022/12/28 07:36:10;;;;;;;4.00;3.40;;;;;;;8.82;100.00;96909.50;5051970;28;20087;-40
2022/12/28 07:38:39;;;;;;;3.47;3.17;;;;;;;8.88;100.00;96906.34;5053795;28;20516;-39
2022/12/28 07:41:09;;;;;;;3.55;3.25;;;;;;;8.49;100.00;96905.94;5052877;28;20076;-41
2022/12/28 07:43:41;;;;;;;3.60;3.30;;;;;;;8.56;100.00;96915.00;5050283;28;20072;-41
2022/12/28 07:46:17;;;;;;;3.53;3.30;;;;;;;8.86;100.00;96926.69;5052032;28;20034;-42
2022/12/28 07:48:46;;;;;;;3.60;3.30;;;;;;;8.72;100.00;96927.78;5053422;28;20072;-39
2022/12/28 07:51:18;;;;;;;3.63;3.33;;;;;;;8.76;100.00;96922.16;5052227;28;20469;-45
2022/12/28 07:53:48;;;;;;;3.42;3.13;;;;;;;8.67;100.00;96916.78;5051166;28;20080;-42
2022/12/28 07:56:17;;;;;;;4.32;3.92;;;;;;;9.04;100.00;96912.03;5055081;28;20083;-41
2022/12/28 07:58:48;;;;;;;24.67;17.30;;;;;;;9.05;100.00;96908.47;5054707;28;20477;-41
2022/12/28 08:01:17;;;;;;;12.65;10.60;;;;;;;9.19;100.00;96908.19;5057157;28;20064;-38
2022/12/28 08:03:46;;;;;;;24.73;15.18;;;;;;;8.89;100.00;96913.28;5059846;28;20085;-38
2022/12/28 08:06:18;;;;;;;4.90;4.50;;;;;;;9.00;100.00;96908.81;5056962;28;20080;-37
2022/12/28 08:08:48;;;;;;;3.65;3.35;;;;;;;9.12;100.00;96904.38;5050117;28;20122;-40
2022/12/28 08:11:18;;;;;;;3.63;3.30;;;;;;;9.07;100.00;96900.44;5058563;28;20085;-41
2022/12/28 08:13:48;;;;;;;3.20;3.00;;;;;;;8.90;100.00;96899.19;5051799;28;20072;-40
2022/12/28 08:16:18;;;;;;;3.63;3.40;;;;;;;9.18;100.00;96897.78;5054740;28;20099;-39
2022/12/28 08:18:47;;;;;;;3.30;3.03;;;;;;;9.02;100.00;96900.84;5053992;28;20092;-40
2022/12/28 08:21:18;;;;;;;3.33;3.13;;;;;;;9.16;100.00;96890.00;5048970;28;20084;-39
2022/12/28 08:23:47;;;;;;;4.78;3.30;;;;;;;9.39;100.00;96882.00;5056412;28;20482;-41
2022/12/28 08:26:16;;;;;;;3.90;3.50;;;;;;;9.23;100.00;96883.28;5055574;28;20083;-39
2022/12/28 08:28:46;;;;;;;4.50;3.80;;;;;;;9.13;100.00;96892.91;5047180;28;20508;-40
2022/12/28 08:31:16;;;;;;;5.57;3.30;;;;;;;9.28;100.00;96899.53;5053259;28;20083;-40
2022/12/28 08:33:45;;;;;;;4.07;3.60;;;;;;;9.51;100.00;96896.81;5055994;28;20502;-42
2022/12/28 08:36:13;;;;;;;3.90;3.50;;;;;;;9.54;100.00;96895.72;5058209;28;20085;-44
2022/12/28 08:38:44;;;;;;;3.25;3.05;;;;;;;9.15;100.00;96892.75;5058751;28;20096;-38
2022/12/28 08:41:15;;;;;;;3.55;3.28;;;;;;;9.71;100.00;96892.53;5057157;28;20560;-38
2022/12/28 08:43:44;;;;;;;3.20;3.00;;;;;;;9.11;100.00;96902.69;5058189;28;20072;-37
2022/12/28 08:46:15;;;;;;;4.68;4.18;;;;;;;9.52;100.00;96896.66;5054135;28;20088;-43
2022/12/28 08:48:43;;;;;;;3.88;3.50;;;;;;;9.31;100.00;96893.19;5053878;28;20084;-41
2022/12/28 08:51:14;;;;;;;3.97;3.65;;;;;;;9.51;100.00;96886.28;5066533;28;20080;-47
2022/12/28 08:53:44;;;;;;;3.75;3.40;;;;;;;9.81;100.00;96880.25;5053213;28;20091;-40
2022/12/28 08:56:14;;;;;;;3.95;3.50;;;;;;;10.15;100.00;96875.56;5064036;28;20079;-49
2022/12/28 08:58:43;;;;;;;3.53;3.23;;;;;;;10.15;100.00;96878.22;5058443;28;20072;-39
2022/12/28 09:01:13;;;;;;;3.58;3.15;;;;;;;10.16;100.00;96871.13;5064174;28;20056;-45
2022/12/28 09:03:43;;;;;;;4.90;3.60;;;;;;;10.32;100.00;96875.94;5053263;28;20461;-42
2022/12/28 09:06:13;;;;;;;3.50;3.20;;;;;;;10.24;100.00;96879.22;5053231;28;20467;-45
2022/12/28 09:08:42;;;;;;;4.22;3.10;;;;;;;10.49;100.00;96874.47;5053832;28;20079;-41
2022/12/28 09:11:31;;;;;;;3.40;3.10;;;;;;;10.69;100.00;96861.19;5054202;28;20087;-45
2022/12/28 09:14:01;;;;;;;3.40;3.10;;;;;;;10.98;100.00;96860.44;5056811;28;20076;-38
2022/12/28 09:16:29;;;;;;;3.20;2.92;;;;;;;10.86;100.00;96864.16;5060649;28;20080;-41
2022/12/28 09:18:59;;;;;;;3.20;2.90;;;;;;;11.06;100.00;96857.09;5056548;28;20084;-39
2022/12/28 09:21:30;;;;;;;5.63;3.00;;;;;;;11.03;100.00;96857.38;5053887;28;20501;-37
2022/12/28 09:23:58;;;;;;;3.33;3.03;;;;;;;11.51;100.00;96849.44;5050980;28;20080;-40
2022/12/28 09:26:29;;;;;;;3.20;2.90;;;;;;;11.71;100.00;96858.19;5056772;28;20524;-42
2022/12/28 09:29:01;;;;;;;3.30;3.00;;;;;;;11.79;100.00;96852.19;5050976;28;20540;-39
2022/12/28 09:31:30;;;;;;;3.63;2.95;;;;;;;11.75;100.00;96846.34;5054652;28;20538;-44
2022/12/28 09:34:00;;;;;;;3.10;2.80;;;;;;;11.71;100.00;96846.78;5056614;28;20079;-38
2022/12/28 09:36:48;;;;;;;3.40;2.67;;;;;;;11.90;100.00;96838.81;5057591;28;20543;-38
2022/12/28 09:39:18;;;;;;;2.80;2.60;;;;;;;12.29;97.36;96844.00;5056425;28;20095;-39
2022/12/28 09:41:50;;;;;;;3.30;3.00;;;;;;;12.18;95.87;96833.59;5054552;28;20084;-39
2022/12/28 09:44:35;;;;;;;5.05;2.63;;;;;;;12.38;93.54;96831.69;5056847;28;20083;-37
2022/12/28 09:47:12;;;;;;;2.72;2.53;;;;;;;12.74;90.01;96829.97;5050591;28;20084;-39
2022/12/28 09:49:44;;;;;;;2.90;2.30;;;;;;;12.58;91.10;96828.81;5058649;28;20080;-41
2022/12/28 09:52:25;;;;;;;2.50;2.15;;;;;;;12.63;88.95;96827.53;5058135;28;20083;-40
2022/12/28 09:54:54;;;;;;;3.25;2.40;;;;;;;12.57;92.36;96821.03;5059757;28;20068;-42
2022/12/28 09:57:23;;;;;;;3.20;2.25;;;;;;;12.73;90.79;96821.22;5057673;28;20083;-43
2022/12/28 09:59:53;;;;;;;2.35;2.10;;;;;;;12.76;89.26;96817.41;5062114;28;20080;-42
2022/12/28 10:02:25;;;;;;;2.53;2.30;;;;;;;13.26;85.74;96807.19;5056316;28;20076;-44
2022/12/28 10:04:54;;;;;;;2.70;2.08;;;;;;;12.96;86.29;96807.53;5050097;28;20081;-37
2022/12/28 10:07:22;;;;;;;2.35;2.10;;;;;;;13.45;86.19;96800.03;5054487;28;20087;-37
2022/12/28 10:09:51;;;;;;;2.95;2.30;;;;;;;13.60;82.80;96800.31;5056490;28;20461;-40
2022/12/28 10:12:23;;;;;;;3.38;2.42;;;;;;;13.58;82.29;96794.34;5057902;28;20067;-38
2022/12/28 10:14:53;;;;;;;4.47;2.25;;;;;;;13.52;80.80;96790.47;5057530;28;20533;-42
2022/12/28 10:17:27;;;;;;;3.47;2.67;;;;;;;13.53;83.05;96787.69;5049733;28;20076;-41
2022/12/28 10:19:57;;;;;;;3.40;2.00;;;;;;;12.69;85.95;96785.44;5051685;28;20077;-44
2022/12/28 10:22:30;;;;;;;3.25;2.40;;;;;;;12.90;89.65;96790.44;5061835;28;20068;-39
2022/12/28 10:24:58;;;;;;;2.13;1.90;;;;;;;13.10;82.07;96777.03;5055743;28;20072;-38
2022/12/28 10:27:30;;;;;;;2.38;2.00;;;;;;;13.32;79.01;96778.41;5060894;28;20092;-41
2022/12/28 10:30:02;;;;;;;2.58;1.98;;;;;;;12.88;85.79;96779.19;5058711;28;20076;-37
2022/12/28 10:32:48;;;;;;;6.47;2.10;;;;;;;13.20;78.14;96775.16;5053690;28;20107;-38
2022/12/28 10:35:28;;;;;;;2.92;2.10;;;;;;;13.38;75.05;96770.69;5054358;28;20080;-39
2022/12/28 10:38:01;;;;;;;1.85;1.70;;;;;;;12.71;81.16;96759.66;5055229;28;20084;-42
2022/12/28 10:40:33;;;;;;;3.15;1.80;;;;;;;12.97;76.10;96765.03;5057070;28;20076;-40
2022/12/28 10:43:01;;;;;;;2.60;2.00;;;;;;;12.93;78.88;96765.47;5056934;28;20075;-38
2022/12/28 10:45:42;;;;;;;2.25;1.70;;;;;;;13.01;79.84;96757.63;5055474;28;20470;-40
2022/12/28 10:48:14;;;;;;;2.00;1.70;;;;;;;13.14;72.27;96749.28;5055906;28;20076;-40
2022/12/28 10:50:47;;;;;;;2.08;1.83;;;;;;;12.60;78.22;96749.31;5049483;28;20084;-44
2022/12/28 10:53:17;;;;;;;5.82;2.10;;;;;;;13.63;74.37;96744.38;5053235;28;20073;-38
2022/12/28 10:55:46;;;;;;;3.85;2.33;;;;;;;13.09;78.00;96743.63;5055286;28;20072;-38
2022/12/28 10:58:17;;;;;;;2.40;2.20;;;;;;;13.60;75.07;96737.56;5059718;28;20075;-38
2022/12/28 11:01:01;;;;;;;2.40;2.10;;;;;;;13.06;82.67;96737.63;5050153;28;20077;-41
2022/12/28 11:03:34;;;;;;;3.10;1.92;;;;;;;13.66;78.75;96734.28;5057250;28;20076;-41
2022/12/28 11:06:09;;;;;;;2.40;2.20;;;;;;;13.70;76.32;96729.50;5058574;28;20533;-37
2022/12/28 11:08:38;;;;;;;2.55;2.05;;;;;;;13.73;77.33;96726.53;5054917;28;20088;-43
2022/12/28 11:11:10;;;;;;;2.40;2.20;;;;;;;13.77;76.94;96723.41;5049322;28;20491;-41
2022/12/28 11:13:39;;;;;;;2.45;2.20;;;;;;;13.43;79.07;96722.53;5061773;28;20092;-40
2022/12/28 11:16:11;;;;;;;3.53;2.08;;;;;;;13.95;77.17;96718.00;5060484;28;20090;-39
2022/12/28 11:18:40;;;;;;;2.47;2.28;;;;;;;13.68;74.39;96718.22;5048731;28;20084;-45
2022/12/28 11:21:10;;;;;;;2.33;2.10;;;;;;;13.50;73.14;96715.63;5049140;28;20068;-38
2022/12/28 11:23:39;;;;;;;5.05;2.08;;;;;;;13.25;70.88;96715.47;5052957;28;20091;-38
2022/12/28 11:26:11;;;;;;;3.33;1.85;;;;;;;13.33;69.52;96713.88;5057687;28;20096;-40
2022/12/28 11:28:41;;;;;;;2.90;2.30;;;;;;;13.21;69.77;96707.94;5050168;28;20088;-40
2022/12/28 11:31:19;;;;;;;2.95;1.98;;;;;;;13.38;68.70;96707.09;5057008;28;20076;-40
2022/12/28 11:33:49;;;;;;;4.05;2.03;;;;;;;13.34;66.28;96710.22;5050944;28;20088;-42
2022/12/28 11:36:18;;;;;;;2.10;1.90;;;;;;;13.44;66.46;96695.06;5061731;28;20084;-40
2022/12/28 11:38:49;;;;;;;2.37;1.90;;;;;;;13.10;67.27;96701.09;5061280;28;20076;-42
2022/12/28 11:41:41;;;;;;;2.20;1.90;;;;;;;13.33;65.78;96696.16;5050675;28;20129;-38
2022/12/28 11:44:50;;;;;;;2.22;2.00;;;;;;;13.25;68.22;96696.94;5049144;28;20072;-38
2022/12/28 11:47:31;;;;;;;5.10;2.20;;;;;;;12.92;70.86;96690.53;5057428;28;20084;-38
2022/12/28 11:50:48;;;;;;;3.42;1.98;;;;;;;13.11;73.00;96684.25;5055421;28;20084;-36
2022/12/28 11:53:23;;;;;;;2.85;2.50;;;;;;;13.66;70.51;96685.72;4987090;28;20039;-39
2022/12/28 11:56:03;;;;;;;2.85;2.50;;;;;;;13.51;71.74;96688.97;5046568;28;20552;-46
2022/12/28 11:59:06;;;;;;;2.40;2.20;;;;;;;13.57;69.61;96674.28;5055110;28;20084;-41
2022/12/28 12:01:51;;;;;;;2.00;1.90;;;;;;;13.97;64.40;96668.31;5051965;28;20562;-36
2022/12/28 12:04:30;;;;;;;2.15;1.90;;;;;;;13.46;69.18;96670.06;5049897;28;20460;-40
2022/12/28 12:07:18;;;;;;;2.35;1.90;;;;;;;13.76;66.45;96667.88;5061248;28;20087;-39
2022/12/28 12:09:48;;;;;;;2.25;2.03;;;;;;;14.03;64.10;96664.19;5053915;28;20084;-41
2022/12/28 12:12:37;;;;;;;4.10;2.20;;;;;;;14.17;62.72;96641.50;5052099;28;20080;-40
2022/12/28 12:15:12;;;;;;;2.20;2.00;;;;;;;13.77;65.27;96651.00;5060665;28;20076;-38
2022/12/28 12:17:44;;;;;;;2.35;2.03;;;;;;;14.20;64.65;96639.34;5060008;28;20083;-39